Aviation Digital Data Service (ADDS)

Output produced by METARs form (1204 UTC 15 July 2020)
found at http://www.aviationweather.gov/metar/data/
 
Forecast for: LEMD (MADRID/BARAJAS , ES)
Text: TAF LEMD 151100Z 1512/1618 05008KT CAVOK TX36/1615Z TN17/1605Z
Forecast period: 1200 UTC 15 July 2020 to 1800 UTC 16 July 2020
Forecast type: FROM: standard forecast or significant change
Winds: from the NE (50 degrees) at 9 MPH (8 knots; 4.1 m/s)
Visibility: 6 or more miles 10+ km)
Ceiling: unknown
Clouds: missing
Weather: no significant weather forecast for this period